sensor_id;sensor_type;location;lat;lon;timestamp;P1;durP1;ratioP1;P2;durP2;ratioP2
72797;SDS011;61084;55.816;37.036;2023-12-20T00:01:08;0.70;;;0.40;;
72797;SDS011;61084;55.816;37.036;2023-12-20T00:03:33;0.55;;;0.30;;
72797;SDS011;61084;55.816;37.036;2023-12-20T00:06:00;0.93;;;0.30;;
72797;SDS011;61084;55.816;37.036;2023-12-20T00:08:26;0.85;;;0.30;;
72797;SDS011;61084;55.816;37.036;2023-12-20T00:10:51;0.50;;;0.32;;
72797;SDS011;61084;55.816;37.036;2023-12-20T00:13:17;0.35;;;0.28;;
72797;SDS011;61084;55.816;37.036;2023-12-20T00:15:43;0.30;;;0.20;;
72797;SDS011;61084;55.816;37.036;2023-12-20T00:18:09;1.58;;;0.35;;
72797;SDS011;61084;55.816;37.036;2023-12-20T00:20:35;0.70;;;0.40;;
72797;SDS011;61084;55.816;37.036;2023-12-20T00:23:01;1.65;;;0.40;;
72797;SDS011;61084;55.816;37.036;2023-12-20T00:25:28;0.40;;;0.30;;
72797;SDS011;61084;55.816;37.036;2023-12-20T00:27:53;3.13;;;0.47;;
72797;SDS011;61084;55.816;37.036;2023-12-20T00:30:19;0.70;;;0.35;;
72797;SDS011;61084;55.816;37.036;2023-12-20T00:32:45;1.45;;;0.40;;
72797;SDS011;61084;55.816;37.036;2023-12-20T00:35:14;0.80;;;0.40;;
72797;SDS011;61084;55.816;37.036;2023-12-20T00:37:40;0.50;;;0.32;;
72797;SDS011;61084;55.816;37.036;2023-12-20T00:40:06;0.98;;;0.45;;
72797;SDS011;61084;55.816;37.036;2023-12-20T00:42:33;2.13;;;0.47;;
72797;SDS011;61084;55.816;37.036;2023-12-20T00:44:59;0.40;;;0.40;;
72797;SDS011;61084;55.816;37.036;2023-12-20T00:47:25;1.48;;;0.57;;
72797;SDS011;61084;55.816;37.036;2023-12-20T00:49:51;1.67;;;0.52;;
72797;SDS011;61084;55.816;37.036;2023-12-20T00:52:18;1.38;;;0.60;;
72797;SDS011;61084;55.816;37.036;2023-12-20T00:54:44;0.90;;;0.40;;
72797;SDS011;61084;55.816;37.036;2023-12-20T00:57:11;2.42;;;0.70;;
72797;SDS011;61084;55.816;37.036;2023-12-20T00:59:37;1.15;;;0.55;;
72797;SDS011;61084;55.816;37.036;2023-12-20T01:02:03;0.88;;;0.60;;
72797;SDS011;61084;55.816;37.036;2023-12-20T01:04:28;0.95;;;0.60;;
72797;SDS011;61084;55.816;37.036;2023-12-20T01:06:54;1.08;;;0.75;;
72797;SDS011;61084;55.816;37.036;2023-12-20T01:09:20;0.93;;;0.60;;
72797;SDS011;61084;55.816;37.036;2023-12-20T01:11:49;1.20;;;0.60;;
72797;SDS011;61084;55.816;37.036;2023-12-20T01:14:14;5.47;;;0.85;;
72797;SDS011;61084;55.816;37.036;2023-12-20T01:16:40;0.65;;;0.65;;
72797;SDS011;61084;55.816;37.036;2023-12-20T01:19:06;0.80;;;0.73;;
72797;SDS011;61084;55.816;37.036;2023-12-20T01:21:32;2.72;;;0.90;;
72797;SDS011;61084;55.816;37.036;2023-12-20T01:23:58;1.08;;;0.70;;
72797;SDS011;61084;55.816;37.036;2023-12-20T01:26:24;2.42;;;0.88;;
72797;SDS011;61084;55.816;37.036;2023-12-20T01:28:49;1.27;;;0.60;;
72797;SDS011;61084;55.816;37.036;2023-12-20T01:31:15;1.40;;;0.88;;
72797;SDS011;61084;55.816;37.036;2023-12-20T01:33:41;1.10;;;0.70;;
72797;SDS011;61084;55.816;37.036;2023-12-20T01:36:07;1.10;;;0.73;;
72797;SDS011;61084;55.816;37.036;2023-12-20T01:38:33;0.65;;;0.63;;
72797;SDS011;61084;55.816;37.036;2023-12-20T01:40:59;1.13;;;0.80;;
72797;SDS011;61084;55.816;37.036;2023-12-20T01:43:25;0.90;;;0.70;;
72797;SDS011;61084;55.816;37.036;2023-12-20T01:45:51;1.05;;;0.55;;
72797;SDS011;61084;55.816;37.036;2023-12-20T01:48:18;1.20;;;0.60;;
72797;SDS011;61084;55.816;37.036;2023-12-20T01:53:12;3.80;;;0.60;;
72797;SDS011;61084;55.816;37.036;2023-12-20T01:55:39;1.15;;;0.50;;
72797;SDS011;61084;55.816;37.036;2023-12-20T01:58:07;0.82;;;0.50;;
72797;SDS011;61084;55.816;37.036;2023-12-20T02:00:34;2.25;;;0.70;;
72797;SDS011;61084;55.816;37.036;2023-12-20T02:03:01;3.33;;;0.85;;
72797;SDS011;61084;55.816;37.036;2023-12-20T02:07:55;0.85;;;0.38;;
72797;SDS011;61084;55.816;37.036;2023-12-20T02:10:21;1.77;;;0.60;;
72797;SDS011;61084;55.816;37.036;2023-12-20T02:12:48;0.77;;;0.60;;
72797;SDS011;61084;55.816;37.036;2023-12-20T02:15:14;2.58;;;0.80;;
72797;SDS011;61084;55.816;37.036;2023-12-20T02:17:40;1.55;;;0.40;;
72797;SDS011;61084;55.816;37.036;2023-12-20T02:20:07;2.45;;;0.50;;
72797;SDS011;61084;55.816;37.036;2023-12-20T02:22:33;1.25;;;0.40;;
72797;SDS011;61084;55.816;37.036;2023-12-20T02:24:59;0.43;;;0.35;;
72797;SDS011;61084;55.816;37.036;2023-12-20T02:27:24;1.85;;;0.75;;
72797;SDS011;61084;55.816;37.036;2023-12-20T02:29:50;3.05;;;0.38;;
72797;SDS011;61084;55.816;37.036;2023-12-20T02:32:17;2.25;;;0.65;;
72797;SDS011;61084;55.816;37.036;2023-12-20T02:34:43;1.58;;;0.50;;
72797;SDS011;61084;55.816;37.036;2023-12-20T02:37:09;0.65;;;0.50;;
72797;SDS011;61084;55.816;37.036;2023-12-20T02:39:35;1.75;;;0.43;;
72797;SDS011;61084;55.816;37.036;2023-12-20T02:42:01;1.17;;;0.50;;
72797;SDS011;61084;55.816;37.036;2023-12-20T02:44:27;2.00;;;0.50;;
72797;SDS011;61084;55.816;37.036;2023-12-20T02:46:53;1.35;;;0.40;;
72797;SDS011;61084;55.816;37.036;2023-12-20T02:49:19;3.10;;;0.60;;
72797;SDS011;61084;55.816;37.036;2023-12-20T02:51:44;2.95;;;0.60;;
72797;SDS011;61084;55.816;37.036;2023-12-20T02:54:11;2.20;;;0.63;;
72797;SDS011;61084;55.816;37.036;2023-12-20T02:56:37;1.02;;;0.70;;
72797;SDS011;61084;55.816;37.036;2023-12-20T02:59:03;5.50;;;0.80;;
72797;SDS011;61084;55.816;37.036;2023-12-20T03:01:31;2.47;;;0.80;;
72797;SDS011;61084;55.816;37.036;2023-12-20T03:03:57;3.55;;;1.23;;
72797;SDS011;61084;55.816;37.036;2023-12-20T03:06:23;3.25;;;0.60;;
72797;SDS011;61084;55.816;37.036;2023-12-20T03:08:50;4.35;;;0.90;;
72797;SDS011;61084;55.816;37.036;2023-12-20T03:11:15;1.25;;;0.60;;
72797;SDS011;61084;55.816;37.036;2023-12-20T03:13:41;1.73;;;0.63;;
72797;SDS011;61084;55.816;37.036;2023-12-20T03:16:11;1.85;;;0.50;;
72797;SDS011;61084;55.816;37.036;2023-12-20T03:18:38;1.58;;;0.63;;
72797;SDS011;61084;55.816;37.036;2023-12-20T03:21:04;2.05;;;0.73;;
72797;SDS011;61084;55.816;37.036;2023-12-20T03:23:31;1.13;;;0.70;;
72797;SDS011;61084;55.816;37.036;2023-12-20T03:25:59;3.33;;;0.95;;
72797;SDS011;61084;55.816;37.036;2023-12-20T03:28:25;2.45;;;0.82;;
72797;SDS011;61084;55.816;37.036;2023-12-20T03:30:52;1.02;;;0.70;;
72797;SDS011;61084;55.816;37.036;2023-12-20T03:33:17;1.30;;;0.65;;
72797;SDS011;61084;55.816;37.036;2023-12-20T03:35:43;2.05;;;1.15;;
72797;SDS011;61084;55.816;37.036;2023-12-20T03:38:09;2.65;;;1.10;;
72797;SDS011;61084;55.816;37.036;2023-12-20T03:40:35;2.78;;;1.15;;
72797;SDS011;61084;55.816;37.036;2023-12-20T03:43:01;3.20;;;1.30;;
72797;SDS011;61084;55.816;37.036;2023-12-20T03:45:27;2.85;;;1.33;;
72797;SDS011;61084;55.816;37.036;2023-12-20T03:47:53;3.28;;;1.10;;
72797;SDS011;61084;55.816;37.036;2023-12-20T03:50:22;1.90;;;1.10;;
72797;SDS011;61084;55.816;37.036;2023-12-20T03:52:48;3.20;;;1.67;;
72797;SDS011;61084;55.816;37.036;2023-12-20T03:55:14;3.10;;;1.40;;
72797;SDS011;61084;55.816;37.036;2023-12-20T03:57:41;4.03;;;1.40;;
72797;SDS011;61084;55.816;37.036;2023-12-20T04:00:07;3.10;;;1.15;;
72797;SDS011;61084;55.816;37.036;2023-12-20T04:02:40;3.65;;;1.10;;
72797;SDS011;61084;55.816;37.036;2023-12-20T04:05:07;1.77;;;1.00;;
72797;SDS011;61084;55.816;37.036;2023-12-20T04:07:34;1.98;;;1.27;;
72797;SDS011;61084;55.816;37.036;2023-12-20T04:10:01;2.75;;;1.23;;
72797;SDS011;61084;55.816;37.036;2023-12-20T04:12:31;4.55;;;0.70;;
72797;SDS011;61084;55.816;37.036;2023-12-20T04:14:58;2.40;;;0.40;;
72797;SDS011;61084;55.816;37.036;2023-12-20T04:17:23;2.70;;;0.60;;
72797;SDS011;61084;55.816;37.036;2023-12-20T04:19:50;1.50;;;0.30;;
72797;SDS011;61084;55.816;37.036;2023-12-20T04:22:19;2.38;;;0.50;;
72797;SDS011;61084;55.816;37.036;2023-12-20T04:24:45;2.17;;;0.50;;
72797;SDS011;61084;55.816;37.036;2023-12-20T04:27:11;0.95;;;0.40;;
72797;SDS011;61084;55.816;37.036;2023-12-20T04:29:37;2.03;;;0.70;;
72797;SDS011;61084;55.816;37.036;2023-12-20T04:32:03;3.70;;;0.60;;
72797;SDS011;61084;55.816;37.036;2023-12-20T04:34:30;2.45;;;0.80;;
72797;SDS011;61084;55.816;37.036;2023-12-20T04:36:55;4.55;;;0.80;;
72797;SDS011;61084;55.816;37.036;2023-12-20T04:39:21;2.83;;;0.93;;
72797;SDS011;61084;55.816;37.036;2023-12-20T04:41:48;2.45;;;1.05;;
72797;SDS011;61084;55.816;37.036;2023-12-20T04:44:15;2.50;;;0.88;;
72797;SDS011;61084;55.816;37.036;2023-12-20T04:46:41;2.50;;;1.05;;
72797;SDS011;61084;55.816;37.036;2023-12-20T04:49:07;4.38;;;1.23;;
72797;SDS011;61084;55.816;37.036;2023-12-20T04:51:33;4.22;;;1.13;;
72797;SDS011;61084;55.816;37.036;2023-12-20T04:54:00;3.20;;;1.67;;
72797;SDS011;61084;55.816;37.036;2023-12-20T04:56:29;2.67;;;1.00;;
72797;SDS011;61084;55.816;37.036;2023-12-20T04:58:55;6.00;;;1.30;;
72797;SDS011;61084;55.816;37.036;2023-12-20T05:01:21;4.30;;;1.00;;
72797;SDS011;61084;55.816;37.036;2023-12-20T05:03:47;3.00;;;0.90;;
72797;SDS011;61084;55.816;37.036;2023-12-20T05:06:13;4.80;;;1.00;;
72797;SDS011;61084;55.816;37.036;2023-12-20T05:08:39;3.83;;;1.10;;
72797;SDS011;61084;55.816;37.036;2023-12-20T05:11:04;5.18;;;1.20;;
72797;SDS011;61084;55.816;37.036;2023-12-20T05:13:30;1.92;;;1.00;;
72797;SDS011;61084;55.816;37.036;2023-12-20T05:15:56;2.38;;;1.33;;
72797;SDS011;61084;55.816;37.036;2023-12-20T05:18:22;5.00;;;1.65;;
72797;SDS011;61084;55.816;37.036;2023-12-20T05:20:49;6.82;;;1.52;;
72797;SDS011;61084;55.816;37.036;2023-12-20T05:23:17;7.72;;;1.45;;
72797;SDS011;61084;55.816;37.036;2023-12-20T05:25:43;4.10;;;1.50;;
72797;SDS011;61084;55.816;37.036;2023-12-20T05:28:09;3.55;;;1.83;;
72797;SDS011;61084;55.816;37.036;2023-12-20T05:30:35;2.72;;;1.27;;
72797;SDS011;61084;55.816;37.036;2023-12-20T05:33:01;5.25;;;1.30;;
72797;SDS011;61084;55.816;37.036;2023-12-20T05:35:26;2.25;;;1.35;;
72797;SDS011;61084;55.816;37.036;2023-12-20T05:37:52;4.30;;;1.80;;
72797;SDS011;61084;55.816;37.036;2023-12-20T05:40:19;2.47;;;1.70;;
72797;SDS011;61084;55.816;37.036;2023-12-20T05:42:45;4.07;;;1.50;;
72797;SDS011;61084;55.816;37.036;2023-12-20T05:45:10;6.50;;;1.58;;
72797;SDS011;61084;55.816;37.036;2023-12-20T05:47:36;3.25;;;1.50;;
72797;SDS011;61084;55.816;37.036;2023-12-20T05:50:03;4.47;;;1.30;;
72797;SDS011;61084;55.816;37.036;2023-12-20T05:52:31;3.30;;;1.50;;
72797;SDS011;61084;55.816;37.036;2023-12-20T05:54:57;4.13;;;1.52;;
72797;SDS011;61084;55.816;37.036;2023-12-20T05:57:32;4.50;;;1.67;;
72797;SDS011;61084;55.816;37.036;2023-12-20T05:59:58;3.13;;;1.60;;
72797;SDS011;61084;55.816;37.036;2023-12-20T06:02:23;2.53;;;1.48;;
72797;SDS011;61084;55.816;37.036;2023-12-20T06:04:49;1.85;;;1.30;;
72797;SDS011;61084;55.816;37.036;2023-12-20T06:07:15;5.07;;;1.58;;
72797;SDS011;61084;55.816;37.036;2023-12-20T06:09:41;2.35;;;1.35;;
72797;SDS011;61084;55.816;37.036;2023-12-20T06:12:08;3.72;;;1.55;;
72797;SDS011;61084;55.816;37.036;2023-12-20T06:14:34;3.75;;;1.35;;
72797;SDS011;61084;55.816;37.036;2023-12-20T06:17:00;2.65;;;1.25;;
72797;SDS011;61084;55.816;37.036;2023-12-20T06:19:27;3.80;;;1.67;;
72797;SDS011;61084;55.816;37.036;2023-12-20T06:21:53;2.97;;;1.73;;
72797;SDS011;61084;55.816;37.036;2023-12-20T06:24:19;3.05;;;1.38;;
72797;SDS011;61084;55.816;37.036;2023-12-20T06:26:45;4.13;;;1.50;;
72797;SDS011;61084;55.816;37.036;2023-12-20T06:29:11;3.35;;;1.40;;
72797;SDS011;61084;55.816;37.036;2023-12-20T06:31:37;3.92;;;1.80;;
72797;SDS011;61084;55.816;37.036;2023-12-20T06:34:03;2.60;;;1.50;;
72797;SDS011;61084;55.816;37.036;2023-12-20T06:36:29;3.58;;;1.30;;
72797;SDS011;61084;55.816;37.036;2023-12-20T06:38:55;5.40;;;1.60;;
72797;SDS011;61084;55.816;37.036;2023-12-20T06:41:21;2.30;;;1.40;;
72797;SDS011;61084;55.816;37.036;2023-12-20T06:43:50;4.90;;;1.90;;
72797;SDS011;61084;55.816;37.036;2023-12-20T06:46:16;7.43;;;1.98;;
72797;SDS011;61084;55.816;37.036;2023-12-20T06:48:42;4.25;;;1.90;;
72797;SDS011;61084;55.816;37.036;2023-12-20T06:51:11;4.13;;;1.88;;
72797;SDS011;61084;55.816;37.036;2023-12-20T06:53:39;5.35;;;2.05;;
72797;SDS011;61084;55.816;37.036;2023-12-20T06:56:05;6.07;;;1.83;;
72797;SDS011;61084;55.816;37.036;2023-12-20T07:00:58;8.13;;;2.25;;
72797;SDS011;61084;55.816;37.036;2023-12-20T07:03:24;4.43;;;2.05;;
72797;SDS011;61084;55.816;37.036;2023-12-20T07:05:50;4.78;;;2.15;;
72797;SDS011;61084;55.816;37.036;2023-12-20T07:08:16;5.40;;;2.15;;
72797;SDS011;61084;55.816;37.036;2023-12-20T07:10:41;3.92;;;1.83;;
72797;SDS011;61084;55.816;37.036;2023-12-20T07:13:08;6.97;;;2.35;;
72797;SDS011;61084;55.816;37.036;2023-12-20T07:15:33;5.75;;;2.03;;
72797;SDS011;61084;55.816;37.036;2023-12-20T07:17:59;4.32;;;2.00;;
72797;SDS011;61084;55.816;37.036;2023-12-20T07:20:26;3.95;;;2.08;;
72797;SDS011;61084;55.816;37.036;2023-12-20T07:22:52;7.80;;;1.98;;
72797;SDS011;61084;55.816;37.036;2023-12-20T07:25:18;3.15;;;1.73;;
72797;SDS011;61084;55.816;37.036;2023-12-20T07:27:44;5.15;;;1.92;;
72797;SDS011;61084;55.816;37.036;2023-12-20T07:30:10;5.13;;;2.00;;
72797;SDS011;61084;55.816;37.036;2023-12-20T07:32:36;3.45;;;1.42;;
72797;SDS011;61084;55.816;37.036;2023-12-20T07:35:02;3.08;;;1.73;;
72797;SDS011;61084;55.816;37.036;2023-12-20T07:39:55;3.05;;;1.80;;
72797;SDS011;61084;55.816;37.036;2023-12-20T07:42:21;7.93;;;1.60;;
72797;SDS011;61084;55.816;37.036;2023-12-20T07:44:47;6.97;;;2.15;;
72797;SDS011;61084;55.816;37.036;2023-12-20T07:47:13;5.60;;;1.58;;
72797;SDS011;61084;55.816;37.036;2023-12-20T07:49:42;6.47;;;1.70;;
72797;SDS011;61084;55.816;37.036;2023-12-20T07:52:08;2.60;;;1.33;;
72797;SDS011;61084;55.816;37.036;2023-12-20T07:54:34;2.55;;;1.50;;
72797;SDS011;61084;55.816;37.036;2023-12-20T07:57:00;3.65;;;1.60;;
72797;SDS011;61084;55.816;37.036;2023-12-20T07:59:26;5.10;;;1.40;;
72797;SDS011;61084;55.816;37.036;2023-12-20T08:01:52;5.78;;;1.75;;
72797;SDS011;61084;55.816;37.036;2023-12-20T08:04:18;4.93;;;1.38;;
72797;SDS011;61084;55.816;37.036;2023-12-20T08:06:44;1.70;;;1.23;;
72797;SDS011;61084;55.816;37.036;2023-12-20T08:09:10;4.45;;;1.80;;
72797;SDS011;61084;55.816;37.036;2023-12-20T08:11:36;2.50;;;1.63;;
72797;SDS011;61084;55.816;37.036;2023-12-20T08:14:02;2.97;;;1.60;;
72797;SDS011;61084;55.816;37.036;2023-12-20T08:16:28;3.60;;;1.83;;
72797;SDS011;61084;55.816;37.036;2023-12-20T08:18:54;6.63;;;1.92;;
72797;SDS011;61084;55.816;37.036;2023-12-20T08:21:20;3.83;;;1.73;;
72797;SDS011;61084;55.816;37.036;2023-12-20T08:23:47;3.75;;;2.00;;
72797;SDS011;61084;55.816;37.036;2023-12-20T08:26:18;4.15;;;2.28;;
72797;SDS011;61084;55.816;37.036;2023-12-20T08:28:46;4.95;;;1.70;;
72797;SDS011;61084;55.816;37.036;2023-12-20T08:31:18;4.53;;;1.65;;
72797;SDS011;61084;55.816;37.036;2023-12-20T08:33:44;4.30;;;1.90;;
72797;SDS011;61084;55.816;37.036;2023-12-20T08:36:12;2.85;;;1.60;;
72797;SDS011;61084;55.816;37.036;2023-12-20T08:38:39;3.67;;;1.63;;
72797;SDS011;61084;55.816;37.036;2023-12-20T08:41:05;4.18;;;1.55;;
72797;SDS011;61084;55.816;37.036;2023-12-20T08:43:36;5.13;;;1.70;;
72797;SDS011;61084;55.816;37.036;2023-12-20T08:46:01;4.28;;;1.90;;
72797;SDS011;61084;55.816;37.036;2023-12-20T08:48:28;5.93;;;1.40;;
72797;SDS011;61084;55.816;37.036;2023-12-20T08:50:54;2.25;;;1.30;;
72797;SDS011;61084;55.816;37.036;2023-12-20T08:53:20;2.75;;;1.58;;
72797;SDS011;61084;55.816;37.036;2023-12-20T08:55:46;2.83;;;1.55;;
72797;SDS011;61084;55.816;37.036;2023-12-20T08:58:13;2.53;;;1.55;;
72797;SDS011;61084;55.816;37.036;2023-12-20T09:00:39;2.83;;;1.65;;
72797;SDS011;61084;55.816;37.036;2023-12-20T09:03:05;4.53;;;1.30;;
72797;SDS011;61084;55.816;37.036;2023-12-20T09:05:31;3.83;;;1.40;;
72797;SDS011;61084;55.816;37.036;2023-12-20T09:07:57;3.88;;;1.55;;
72797;SDS011;61084;55.816;37.036;2023-12-20T09:10:23;2.92;;;1.42;;
72797;SDS011;61084;55.816;37.036;2023-12-20T09:12:50;3.03;;;1.10;;
72797;SDS011;61084;55.816;37.036;2023-12-20T09:15:17;2.22;;;1.08;;
72797;SDS011;61084;55.816;37.036;2023-12-20T09:17:43;4.95;;;1.42;;
72797;SDS011;61084;55.816;37.036;2023-12-20T09:20:09;3.63;;;1.08;;
72797;SDS011;61084;55.816;37.036;2023-12-20T09:22:36;1.33;;;1.05;;
72797;SDS011;61084;55.816;37.036;2023-12-20T09:25:04;5.43;;;1.15;;
72797;SDS011;61084;55.816;37.036;2023-12-20T09:27:30;1.95;;;0.95;;
72797;SDS011;61084;55.816;37.036;2023-12-20T09:29:57;1.73;;;1.10;;
72797;SDS011;61084;55.816;37.036;2023-12-20T09:32:22;1.70;;;1.00;;
72797;SDS011;61084;55.816;37.036;2023-12-20T09:34:48;4.50;;;0.98;;
72797;SDS011;61084;55.816;37.036;2023-12-20T09:37:14;1.98;;;1.20;;
72797;SDS011;61084;55.816;37.036;2023-12-20T09:39:40;2.60;;;1.10;;
72797;SDS011;61084;55.816;37.036;2023-12-20T09:42:06;2.58;;;1.30;;
72797;SDS011;61084;55.816;37.036;2023-12-20T09:44:33;1.80;;;1.30;;
72797;SDS011;61084;55.816;37.036;2023-12-20T09:47:02;2.78;;;1.27;;
72797;SDS011;61084;55.816;37.036;2023-12-20T09:51:55;3.95;;;1.30;;
72797;SDS011;61084;55.816;37.036;2023-12-20T09:54:22;2.08;;;1.23;;
72797;SDS011;61084;55.816;37.036;2023-12-20T09:56:49;3.13;;;1.15;;
72797;SDS011;61084;55.816;37.036;2023-12-20T09:59:16;2.63;;;1.23;;
72797;SDS011;61084;55.816;37.036;2023-12-20T10:01:42;4.15;;;1.00;;
72797;SDS011;61084;55.816;37.036;2023-12-20T10:04:09;2.22;;;1.30;;
72797;SDS011;61084;55.816;37.036;2023-12-20T10:06:39;3.38;;;1.15;;
72797;SDS011;61084;55.816;37.036;2023-12-20T10:09:06;4.00;;;1.33;;
72797;SDS011;61084;55.816;37.036;2023-12-20T10:11:32;2.63;;;1.20;;
72797;SDS011;61084;55.816;37.036;2023-12-20T10:14:01;4.63;;;1.20;;
72797;SDS011;61084;55.816;37.036;2023-12-20T10:16:27;1.92;;;0.93;;
72797;SDS011;61084;55.816;37.036;2023-12-20T10:18:54;2.58;;;1.30;;
72797;SDS011;61084;55.816;37.036;2023-12-20T10:21:20;2.33;;;1.10;;
72797;SDS011;61084;55.816;37.036;2023-12-20T10:23:48;2.38;;;1.10;;
72797;SDS011;61084;55.816;37.036;2023-12-20T10:26:25;3.58;;;1.13;;
72797;SDS011;61084;55.816;37.036;2023-12-20T10:28:55;1.80;;;0.93;;
72797;SDS011;61084;55.816;37.036;2023-12-20T10:31:32;2.55;;;1.10;;
72797;SDS011;61084;55.816;37.036;2023-12-20T10:33:59;1.73;;;1.20;;
72797;SDS011;61084;55.816;37.036;2023-12-20T10:36:26;2.40;;;1.20;;
72797;SDS011;61084;55.816;37.036;2023-12-20T10:38:54;1.80;;;1.20;;
72797;SDS011;61084;55.816;37.036;2023-12-20T10:41:30;4.05;;;1.10;;
72797;SDS011;61084;55.816;37.036;2023-12-20T10:44:01;1.80;;;1.20;;
72797;SDS011;61084;55.816;37.036;2023-12-20T10:46:29;2.67;;;1.02;;
72797;SDS011;61084;55.816;37.036;2023-12-20T10:48:56;2.33;;;1.30;;
72797;SDS011;61084;55.816;37.036;2023-12-20T10:51:23;4.80;;;1.45;;
72797;SDS011;61084;55.816;37.036;2023-12-20T10:53:52;2.42;;;0.90;;
72797;SDS011;61084;55.816;37.036;2023-12-20T10:56:19;0.60;;;0.60;;
72797;SDS011;61084;55.816;37.036;2023-12-20T10:58:47;1.73;;;0.98;;
72797;SDS011;61084;55.816;37.036;2023-12-20T11:01:15;1.33;;;0.77;;
72797;SDS011;61084;55.816;37.036;2023-12-20T11:03:52;2.53;;;1.10;;
72797;SDS011;61084;55.816;37.036;2023-12-20T11:08:50;1.55;;;1.08;;
72797;SDS011;61084;55.816;37.036;2023-12-20T11:11:23;1.77;;;1.00;;
72797;SDS011;61084;55.816;37.036;2023-12-20T11:14:02;2.47;;;0.98;;
72797;SDS011;61084;55.816;37.036;2023-12-20T11:16:33;1.50;;;0.82;;
72797;SDS011;61084;55.816;37.036;2023-12-20T11:19:05;1.30;;;0.70;;
72797;SDS011;61084;55.816;37.036;2023-12-20T11:21:31;1.23;;;0.80;;
72797;SDS011;61084;55.816;37.036;2023-12-20T11:23:57;3.70;;;1.05;;
72797;SDS011;61084;55.816;37.036;2023-12-20T11:26:26;1.45;;;0.75;;
72797;SDS011;61084;55.816;37.036;2023-12-20T11:28:54;1.55;;;0.93;;
72797;SDS011;61084;55.816;37.036;2023-12-20T11:31:40;2.38;;;0.60;;
72797;SDS011;61084;55.816;37.036;2023-12-20T11:34:13;2.15;;;0.70;;
72797;SDS011;61084;55.816;37.036;2023-12-20T11:36:42;1.20;;;0.70;;
72797;SDS011;61084;55.816;37.036;2023-12-20T11:39:08;1.98;;;1.00;;
72797;SDS011;61084;55.816;37.036;2023-12-20T11:41:34;2.13;;;1.10;;
72797;SDS011;61084;55.816;37.036;2023-12-20T11:44:00;2.13;;;0.70;;
72797;SDS011;61084;55.816;37.036;2023-12-20T11:46:26;1.83;;;0.80;;
72797;SDS011;61084;55.816;37.036;2023-12-20T11:48:52;1.35;;;0.47;;
72797;SDS011;61084;55.816;37.036;2023-12-20T11:51:18;3.60;;;0.60;;
72797;SDS011;61084;55.816;37.036;2023-12-20T11:53:44;1.05;;;0.50;;
72797;SDS011;61084;55.816;37.036;2023-12-20T11:56:10;1.60;;;0.55;;
72797;SDS011;61084;55.816;37.036;2023-12-20T11:58:36;1.83;;;0.47;;
72797;SDS011;61084;55.816;37.036;2023-12-20T12:01:02;2.28;;;0.60;;
72797;SDS011;61084;55.816;37.036;2023-12-20T12:03:30;1.00;;;0.45;;
72797;SDS011;61084;55.816;37.036;2023-12-20T12:05:57;1.48;;;0.55;;
72797;SDS011;61084;55.816;37.036;2023-12-20T12:08:23;2.10;;;0.50;;
72797;SDS011;61084;55.816;37.036;2023-12-20T12:10:49;1.65;;;0.57;;
72797;SDS011;61084;55.816;37.036;2023-12-20T12:13:15;1.77;;;0.55;;
72797;SDS011;61084;55.816;37.036;2023-12-20T12:15:41;1.25;;;0.50;;
72797;SDS011;61084;55.816;37.036;2023-12-20T12:18:08;1.45;;;0.70;;
72797;SDS011;61084;55.816;37.036;2023-12-20T12:20:36;1.88;;;0.40;;
72797;SDS011;61084;55.816;37.036;2023-12-20T12:23:02;1.90;;;0.70;;
72797;SDS011;61084;55.816;37.036;2023-12-20T12:25:34;1.85;;;0.45;;
72797;SDS011;61084;55.816;37.036;2023-12-20T12:28:02;1.90;;;0.60;;
72797;SDS011;61084;55.816;37.036;2023-12-20T12:30:29;2.20;;;0.50;;
72797;SDS011;61084;55.816;37.036;2023-12-20T12:32:55;0.98;;;0.52;;
72797;SDS011;61084;55.816;37.036;2023-12-20T12:35:22;2.92;;;0.65;;
72797;SDS011;61084;55.816;37.036;2023-12-20T12:37:48;0.93;;;0.60;;
72797;SDS011;61084;55.816;37.036;2023-12-20T12:40:15;1.52;;;0.70;;
72797;SDS011;61084;55.816;37.036;2023-12-20T12:42:43;4.85;;;1.23;;
72797;SDS011;61084;55.816;37.036;2023-12-20T12:45:09;1.80;;;1.17;;
72797;SDS011;61084;55.816;37.036;2023-12-20T12:47:40;2.20;;;0.88;;
72797;SDS011;61084;55.816;37.036;2023-12-20T12:50:06;1.20;;;0.70;;
72797;SDS011;61084;55.816;37.036;2023-12-20T12:52:32;3.15;;;0.85;;
72797;SDS011;61084;55.816;37.036;2023-12-20T12:54:59;0.90;;;0.68;;
72797;SDS011;61084;55.816;37.036;2023-12-20T12:57:25;1.58;;;0.77;;
72797;SDS011;61084;55.816;37.036;2023-12-20T12:59:51;3.53;;;0.73;;
72797;SDS011;61084;55.816;37.036;2023-12-20T13:02:17;0.93;;;0.60;;
72797;SDS011;61084;55.816;37.036;2023-12-20T13:04:42;1.40;;;0.43;;
72797;SDS011;61084;55.816;37.036;2023-12-20T13:07:09;3.00;;;0.80;;
72797;SDS011;61084;55.816;37.036;2023-12-20T13:09:39;1.38;;;0.60;;
72797;SDS011;61084;55.816;37.036;2023-12-20T13:12:06;1.60;;;0.82;;
72797;SDS011;61084;55.816;37.036;2023-12-20T13:14:33;3.38;;;0.90;;
72797;SDS011;61084;55.816;37.036;2023-12-20T13:17:01;1.60;;;0.80;;
72797;SDS011;61084;55.816;37.036;2023-12-20T13:19:27;2.05;;;1.10;;
72797;SDS011;61084;55.816;37.036;2023-12-20T13:21:53;4.22;;;1.20;;
72797;SDS011;61084;55.816;37.036;2023-12-20T13:24:20;2.80;;;1.08;;
72797;SDS011;61084;55.816;37.036;2023-12-20T13:26:46;1.92;;;0.93;;
72797;SDS011;61084;55.816;37.036;2023-12-20T13:29:12;3.05;;;0.60;;
72797;SDS011;61084;55.816;37.036;2023-12-20T13:31:38;0.85;;;0.60;;
72797;SDS011;61084;55.816;37.036;2023-12-20T13:34:06;1.17;;;0.50;;
72797;SDS011;61084;55.816;37.036;2023-12-20T13:36:33;0.55;;;0.40;;
72797;SDS011;61084;55.816;37.036;2023-12-20T13:38:59;3.58;;;0.30;;
72797;SDS011;61084;55.816;37.036;2023-12-20T13:41:25;0.73;;;0.30;;
72797;SDS011;61084;55.816;37.036;2023-12-20T13:43:51;0.98;;;0.43;;
72797;SDS011;61084;55.816;37.036;2023-12-20T13:46:17;1.98;;;0.80;;
72797;SDS011;61084;55.816;37.036;2023-12-20T13:48:43;2.30;;;0.93;;
72797;SDS011;61084;55.816;37.036;2023-12-20T13:51:08;1.42;;;0.90;;
72797;SDS011;61084;55.816;37.036;2023-12-20T13:53:34;2.35;;;0.73;;
72797;SDS011;61084;55.816;37.036;2023-12-20T13:56:00;1.55;;;0.68;;
72797;SDS011;61084;55.816;37.036;2023-12-20T13:58:26;4.97;;;0.65;;
72797;SDS011;61084;55.816;37.036;2023-12-20T14:00:52;1.10;;;0.68;;
72797;SDS011;61084;55.816;37.036;2023-12-20T14:03:18;2.15;;;0.80;;
72797;SDS011;61084;55.816;37.036;2023-12-20T14:05:45;0.70;;;0.50;;
72797;SDS011;61084;55.816;37.036;2023-12-20T14:08:11;1.25;;;0.52;;
72797;SDS011;61084;55.816;37.036;2023-12-20T14:10:37;1.92;;;0.60;;
72797;SDS011;61084;55.816;37.036;2023-12-20T14:13:04;3.03;;;1.25;;
72797;SDS011;61084;55.816;37.036;2023-12-20T14:15:31;3.72;;;1.40;;
72797;SDS011;61084;55.816;37.036;2023-12-20T14:18:06;2.67;;;1.55;;
72797;SDS011;61084;55.816;37.036;2023-12-20T14:20:33;3.20;;;1.33;;
72797;SDS011;61084;55.816;37.036;2023-12-20T14:23:04;2.65;;;1.40;;
72797;SDS011;61084;55.816;37.036;2023-12-20T14:25:31;3.92;;;1.48;;
72797;SDS011;61084;55.816;37.036;2023-12-20T14:27:57;3.10;;;1.13;;
72797;SDS011;61084;55.816;37.036;2023-12-20T14:30:23;2.35;;;1.30;;
72797;SDS011;61084;55.816;37.036;2023-12-20T14:32:50;2.05;;;0.90;;
72797;SDS011;61084;55.816;37.036;2023-12-20T14:35:16;3.90;;;1.25;;
72797;SDS011;61084;55.816;37.036;2023-12-20T14:37:42;2.83;;;1.10;;
72797;SDS011;61084;55.816;37.036;2023-12-20T14:40:08;1.52;;;0.82;;
72797;SDS011;61084;55.816;37.036;2023-12-20T14:42:42;2.53;;;1.00;;
72797;SDS011;61084;55.816;37.036;2023-12-20T14:45:09;2.45;;;1.23;;